Time;durP1;ratioP1;P1;durP2;ratioP2;P2;SDS_P1;SDS_P2;PMS_P1;PMS_P2;Temp;Humidity;BMP_temperature;BMP_pressure;BME280_temperature;BME280_humidity;BME280_pressure;Samples;Min_cycle;Max_cycle;Signal;HPM_P1;HPM_P2
2023/03/29 00:01:51;;;;;;;6.77;2.77;;;4.90;95.40;;;;;;6161380;23;20163;-77
2023/03/29 00:04:18;;;;;;;5.13;3.00;;;4.90;95.60;;;;;;6187211;23;20151;-77
2023/03/29 00:06:49;;;;;;;5.10;3.33;;;4.90;95.60;;;;;;6162047;23;20237;-77
2023/03/29 00:09:15;;;;;;;5.90;3.27;;;4.80;95.90;;;;;;6161897;23;20234;-77
2023/03/29 00:11:41;;;;;;;5.83;3.60;;;4.90;95.90;;;;;;6160841;23;20612;-77
2023/03/29 00:14:07;;;;;;;9.23;3.60;;;4.80;95.80;;;;;;6161063;23;20179;-77
2023/03/29 00:16:32;;;;;;;5.13;3.80;;;4.80;95.90;;;;;;6161635;23;20182;-77
2023/03/29 00:18:58;;;;;;;6.43;3.53;;;4.70;96.00;;;;;;6187352;23;20151;-77
2023/03/29 00:21:23;;;;;;;6.67;3.60;;;4.60;96.10;;;;;;6161804;23;20155;-77
2023/03/29 00:23:49;;;;;;;6.57;3.27;;;4.60;96.50;;;;;;6160600;23;20162;-77
2023/03/29 00:26:15;;;;;;;4.87;3.60;;;4.60;96.90;;;;;;6160606;23;20183;-77
2023/03/29 00:28:40;;;;;;;8.30;3.70;;;4.60;96.80;;;;;;6186989;23;20155;-77
2023/03/29 00:31:09;;;;;;;6.37;3.40;;;4.50;97.10;;;;;;6160699;23;20262;-77
2023/03/29 00:33:34;;;;;;;10.57;3.00;;;4.50;96.90;;;;;;6186812;23;20652;-77
2023/03/29 00:36:00;;;;;;;3.20;2.30;;;4.50;96.10;;;;;;6161154;23;20175;-77
2023/03/29 00:38:26;;;;;;;3.17;2.10;;;4.50;95.30;;;;;;6161042;23;20170;-77
2023/03/29 00:40:52;;;;;;;5.50;2.60;;;4.50;95.20;;;;;;6187195;23;20143;-77
2023/03/29 00:43:17;;;;;;;4.60;2.50;;;4.40;95.30;;;;;;6187109;23;20242;-77
2023/03/29 00:45:43;;;;;;;5.20;2.33;;;4.40;95.20;;;;;;6160450;23;20171;-77
2023/03/29 00:48:16;;;;;;;4.90;2.37;;;4.50;95.50;;;;;;6160497;23;20159;-77
2023/03/29 00:50:41;;;;;;;4.60;2.20;;;4.50;95.60;;;;;;6161395;23;20237;-77
2023/03/29 00:53:22;;;;;;;3.37;2.30;;;4.50;95.50;;;;;;6161364;23;20260;-77
2023/03/29 00:56:04;;;;;;;3.67;2.60;;;4.60;96.00;;;;;;6186720;23;20170;-77
2023/03/29 00:58:36;;;;;;;4.33;2.40;;;4.60;94.90;;;;;;6161472;23;20236;-77
2023/03/29 04:23:57;;;;;;;7.23;3.80;;;4.60;98.30;;;;;;6193564;23;20270;-94
2023/03/29 04:26:23;;;;;;;9.80;3.73;;;4.40;98.60;;;;;;6173786;23;20183;-94
2023/03/29 04:28:58;;;;;;;5.90;3.67;;;4.50;98.80;;;;;;6176517;23;20158;-93
2023/03/29 04:31:23;;;;;;;6.43;3.87;;;4.40;98.60;;;;;;6181859;23;20158;-93
2023/03/29 04:33:50;;;;;;;5.27;3.97;;;4.40;98.80;;;;;;6176505;23;20187;-94
2023/03/29 04:36:16;;;;;;;4.97;4.07;;;4.40;98.90;;;;;;6189189;23;20167;-94
2023/03/29 04:41:49;;;;;;;7.97;3.60;;;4.50;99.10;;;;;;6194499;23;20155;-95
2023/03/29 04:44:15;;;;;;;5.23;3.57;;;4.50;98.80;;;;;;6189774;23;20173;-95
2023/03/29 04:46:41;;;;;;;8.97;3.87;;;4.50;98.80;;;;;;6189489;23;20166;-93
2023/03/29 04:49:43;;;;;;;5.77;3.50;;;4.50;98.90;;;;;;6181813;23;20139;-93
2023/03/29 04:52:08;;;;;;;5.37;3.70;;;4.40;99.20;;;;;;6171598;23;20150;-93
2023/03/29 04:54:36;;;;;;;5.43;3.57;;;4.40;99.30;;;;;;6198998;23;20259;-94
2023/03/29 04:57:02;;;;;;;7.80;4.70;;;4.40;99.40;;;;;;6184536;23;20186;-94
2023/03/29 04:59:28;;;;;;;6.07;3.83;;;4.50;99.50;;;;;;6184326;23;20151;-95
2023/03/29 05:01:53;;;;;;;7.33;3.80;;;4.60;99.50;;;;;;6188394;23;20149;-96
2023/03/29 05:04:19;;;;;;;5.47;4.00;;;4.50;99.00;;;;;;6189734;23;20166;-94
2023/03/29 05:56:45;;;;;;;9.17;3.80;;;5.20;99.00;;;;;;6193575;23;20305;-93
2023/03/29 05:59:12;;;;;;;13.17;4.33;;;5.30;98.90;;;;;;6178956;23;20159;-90
2023/03/29 06:01:38;;;;;;;20.43;12.30;;;5.40;98.70;;;;;;6182644;23;20147;-92
2023/03/29 06:04:05;;;;;;;11.50;6.90;;;5.40;98.70;;;;;;6184409;23;20181;-92
2023/03/29 06:06:30;;;;;;;17.52;11.95;;;5.50;98.90;;;;;;6182270;23;20273;-93
2023/03/29 06:08:56;;;;;;;23.23;16.92;;;5.40;98.90;;;;;;6182669;23;20692;-92
2023/03/29 06:11:23;;;;;;;9.60;5.60;;;5.30;99.30;;;;;;6180471;23;20234;-92
2023/03/29 06:13:48;;;;;;;11.05;8.73;;;5.50;98.90;;;;;;6176225;23;20213;-92
2023/03/29 06:16:15;;;;;;;7.72;6.40;;;5.50;98.80;;;;;;6203140;23;20198;-93
2023/03/29 06:18:41;;;;;;;6.95;4.43;;;5.50;98.80;;;;;;6176553;23;20182;-93
2023/03/29 06:21:08;;;;;;;5.40;4.50;;;5.60;98.50;;;;;;6178016;23;20226;-92
2023/03/29 06:23:35;;;;;;;11.43;6.32;;;5.60;98.40;;;;;;6177222;23;20165;-92
2023/03/29 06:26:00;;;;;;;5.50;4.47;;;5.60;98.40;;;;;;6179083;23;20178;-93
2023/03/29 06:28:26;;;;;;;11.13;5.60;;;5.70;98.10;;;;;;6178694;23;20166;-92
2023/03/29 06:30:55;;;;;;;9.98;5.93;;;5.80;98.00;;;;;;6178638;23;20166;-92
2023/03/29 06:33:21;;;;;;;14.10;9.40;;;5.90;98.10;;;;;;6176708;23;20210;-92
2023/03/29 06:35:48;;;;;;;15.95;10.07;;;5.90;98.50;;;;;;6180296;23;20175;-93
2023/03/29 06:38:14;;;;;;;15.98;10.75;;;6.00;98.90;;;;;;6182449;23;20182;-92
2023/03/29 06:40:41;;;;;;;10.35;7.93;;;6.10;99.20;;;;;;6182866;23;20155;-93
2023/03/29 06:43:07;;;;;;;12.32;6.03;;;6.20;99.40;;;;;;6181943;23;20166;-93
2023/03/29 06:45:36;;;;;;;9.27;6.30;;;6.40;99.20;;;;;;6182259;23;20185;-93
2023/03/29 06:48:02;;;;;;;7.53;4.60;;;6.50;98.80;;;;;;6207222;23;20158;-92
2023/03/29 06:50:29;;;;;;;5.35;3.83;;;6.60;98.60;;;;;;6181065;23;20237;-93
2023/03/29 06:52:55;;;;;;;9.15;6.43;;;6.70;98.10;;;;;;6181840;23;20185;-93
2023/03/29 06:55:22;;;;;;;8.02;4.72;;;6.70;97.90;;;;;;6208215;23;20599;-93
2023/03/29 06:57:48;;;;;;;5.32;4.13;;;6.80;97.80;;;;;;6209338;23;20143;-92
2023/03/29 07:00:18;;;;;;;7.65;4.93;;;6.90;97.30;;;;;;6182299;23;20166;-92
2023/03/29 07:02:48;;;;;;;8.80;5.07;;;6.90;97.10;;;;;;6181760;23;20147;-93
2023/03/29 07:05:14;;;;;;;7.68;5.00;;;7.10;97.10;;;;;;6181064;23;20143;-93
2023/03/29 07:07:58;;;;;;;11.25;5.68;;;7.20;97.20;;;;;;6185253;23;20173;-93
2023/03/29 07:10:38;;;;;;;11.68;9.48;;;7.20;96.70;;;;;;6187543;23;20207;-93
2023/03/29 07:13:05;;;;;;;15.15;9.95;;;7.20;97.00;;;;;;6186022;23;20200;-93
2023/03/29 07:15:34;;;;;;;20.50;12.13;;;7.00;97.20;;;;;;6186890;23;20178;-93
2023/03/29 07:18:04;;;;;;;13.40;7.60;;;7.00;97.20;;;;;;6187480;23;20166;-93
2023/03/29 07:20:30;;;;;;;18.05;12.00;;;7.00;97.30;;;;;;6187344;23;20155;-93
2023/03/29 07:22:56;;;;;;;6.18;4.57;;;6.90;97.30;;;;;;6187463;23;20177;-93
2023/03/29 07:25:24;;;;;;;8.98;5.07;;;6.90;97.20;;;;;;6187482;23;20159;-93
2023/03/29 07:27:53;;;;;;;13.90;5.85;;;7.00;97.30;;;;;;6186620;23;20166;-94
2023/03/29 07:30:21;;;;;;;13.43;6.07;;;7.20;97.50;;;;;;6187100;23;20182;-93
2023/03/29 07:32:49;;;;;;;6.65;4.75;;;7.40;97.40;;;;;;6187832;23;20168;-93
2023/03/29 07:35:16;;;;;;;13.23;7.95;;;7.70;97.10;;;;;;6189504;23;20153;-93
2023/03/29 07:37:43;;;;;;;11.27;4.80;;;7.90;97.00;;;;;;6189885;23;20143;-93
2023/03/29 07:40:18;;;;;;;15.77;5.32;;;8.00;96.50;;;;;;6189667;23;20167;-93
2023/03/29 07:42:45;;;;;;;12.23;6.13;;;8.20;96.00;;;;;;6189411;23;20182;-94
2023/03/29 07:45:13;;;;;;;19.80;8.75;;;8.40;95.90;;;;;;6189413;23;20207;-93
2023/03/29 07:47:39;;;;;;;8.38;4.75;;;8.50;96.10;;;;;;6189262;23;20139;-93
2023/03/29 07:50:06;;;;;;;9.85;4.20;;;8.60;95.90;;;;;;6189776;23;20147;-93
2023/03/29 07:52:32;;;;;;;12.27;4.63;;;8.70;95.60;;;;;;6190496;23;20155;-93
2023/03/29 07:54:58;;;;;;;10.45;4.00;;;8.70;95.40;;;;;;6189668;23;20242;-93
2023/03/29 07:57:25;;;;;;;9.65;4.00;;;8.70;95.70;;;;;;6189756;23;20205;-93
2023/03/29 07:59:51;;;;;;;6.28;3.47;;;8.80;95.60;;;;;;6189784;23;20170;-93
2023/03/29 08:02:18;;;;;;;6.40;4.38;;;8.80;95.40;;;;;;6189175;23;20163;-94
2023/03/29 08:04:44;;;;;;;6.93;3.78;;;8.90;95.60;;;;;;6189902;23;20153;-92
2023/03/29 08:07:11;;;;;;;14.00;6.88;;;8.80;95.90;;;;;;6190151;23;20163;-93
2023/03/29 08:09:37;;;;;;;35.00;29.05;;;8.70;95.70;;;;;;6190349;23;20163;-94
2023/03/29 08:12:03;;;;;;;13.43;6.82;;;8.80;96.10;;;;;;6190192;23;20147;-94
2023/03/29 08:14:29;;;;;;;5.38;4.13;;;8.80;95.80;;;;;;6190174;23;20181;-92
2023/03/29 08:16:55;;;;;;;6.80;6.10;;;8.70;95.80;;;;;;6189960;23;20167;-94
2023/03/29 08:19:20;;;;;;;10.13;5.10;;;8.70;95.90;;;;;;6190047;23;20153;-92
2023/03/29 08:21:47;;;;;;;10.18;4.72;;;8.90;96.50;;;;;;6214963;23;20151;-93
2023/03/29 08:24:13;;;;;;;11.45;10.13;;;9.00;96.30;;;;;;6187845;23;20149;-91
2023/03/29 08:26:38;;;;;;;13.77;6.45;;;9.00;96.20;;;;;;6189419;23;20219;-92
2023/03/29 08:29:05;;;;;;;29.45;6.95;;;9.00;96.30;;;;;;6189525;23;20147;-93
2023/03/29 08:31:32;;;;;;;5.88;4.38;;;9.20;96.40;;;;;;6189860;23;20147;-94
2023/03/29 08:33:58;;;;;;;7.00;4.88;;;9.30;95.90;;;;;;6182742;23;20191;-92
2023/03/29 08:36:23;;;;;;;8.35;4.90;;;9.50;96.00;;;;;;6185188;23;20179;-93
2023/03/29 08:38:50;;;;;;;8.20;4.20;;;9.70;95.40;;;;;;6180711;23;20161;-92
2023/03/29 08:41:40;;;;;;;5.53;3.60;;;9.80;95.20;;;;;;6171512;23;20166;-92
2023/03/29 08:44:14;;;;;;;9.95;4.57;;;9.90;94.50;;;;;;6173675;23;20218;-92
2023/03/29 08:46:48;;;;;;;6.43;3.50;;;10.10;94.80;;;;;;6168273;23;20182;-92
2023/03/29 08:49:15;;;;;;;4.00;3.35;;;10.30;94.40;;;;;;6165738;23;20210;-89
2023/03/29 08:51:51;;;;;;;4.82;3.83;;;10.60;94.10;;;;;;6162953;23;20159;-91
2023/03/29 08:54:17;;;;;;;11.13;3.72;;;10.90;93.70;;;;;;6168019;23;20187;-92
2023/03/29 08:56:46;;;;;;;6.88;3.47;;;10.90;93.20;;;;;;6163184;23;20268;-91
2023/03/29 08:59:21;;;;;;;3.90;3.30;;;11.00;92.80;;;;;;6190514;23;20163;-90
2023/03/29 09:01:50;;;;;;;5.43;3.50;;;11.10;92.30;;;;;;6162438;23;20151;-90
2023/03/29 09:04:21;;;;;;;7.07;3.95;;;11.30;92.10;;;;;;6161402;23;20163;-90
2023/03/29 09:06:47;;;;;;;4.85;3.67;;;11.40;92.30;;;;;;6160876;23;20175;-90
2023/03/29 09:09:32;;;;;;;3.80;3.50;;;11.60;92.20;;;;;;6161516;23;20186;-90
2023/03/29 09:12:17;;;;;;;5.28;3.50;;;11.70;91.90;;;;;;6161414;23;20155;-90
2023/03/29 09:15:05;;;;;;;8.10;3.60;;;12.00;91.70;;;;;;6135204;23;20205;-90
2023/03/29 09:17:52;;;;;;;6.75;3.50;;;12.10;90.90;;;;;;6159788;23;20183;-90
2023/03/29 09:20:50;;;;;;;12.82;3.20;;;12.10;90.60;;;;;;6160791;23;20147;-90
2023/03/29 09:23:53;;;;;;;10.00;3.60;;;12.30;90.60;;;;;;6161146;23;20477;-90
2023/03/29 09:26:24;;;;;;;4.50;3.28;;;12.20;90.60;;;;;;6160927;23;20258;-89
2023/03/29 09:29:05;;;;;;;5.60;3.47;;;12.20;90.20;;;;;;6160942;23;20144;-90
2023/03/29 09:31:41;;;;;;;3.58;3.25;;;12.40;90.20;;;;;;6159968;23;20186;-90
2023/03/29 09:34:16;;;;;;;6.30;3.20;;;12.40;90.20;;;;;;6159808;23;20174;-90
2023/03/29 09:36:55;;;;;;;4.25;3.00;;;12.40;90.20;;;;;;6187276;23;20174;-90
2023/03/29 09:39:22;;;;;;;5.00;3.70;;;12.20;90.20;;;;;;6159869;23;20147;-90
2023/03/29 09:42:03;;;;;;;6.05;3.35;;;11.90;90.30;;;;;;6159736;23;20166;-90
2023/03/29 09:44:34;;;;;;;8.93;3.50;;;11.80;90.70;;;;;;6160810;23;20155;-90
2023/03/29 09:47:23;;;;;;;4.22;3.28;;;11.70;90.50;;;;;;6186464;23;20229;-90
2023/03/29 09:49:54;;;;;;;5.25;3.40;;;11.80;90.90;;;;;;6159845;23;20162;-90
2023/03/29 09:52:20;;;;;;;7.65;4.07;;;11.80;90.30;;;;;;6160794;23;20147;-90
2023/03/29 09:54:46;;;;;;;8.07;3.53;;;11.80;90.80;;;;;;6160057;23;20250;-90
2023/03/29 09:57:15;;;;;;;8.27;3.47;;;11.90;90.60;;;;;;6160122;23;20229;-90
2023/03/29 09:59:43;;;;;;;8.13;3.45;;;11.80;90.70;;;;;;6186188;23;20155;-90
2023/03/29 10:02:11;;;;;;;4.22;3.40;;;11.90;90.60;;;;;;6159842;23;20159;-90
2023/03/29 10:04:38;;;;;;;4.22;3.22;;;11.90;89.50;;;;;;6160632;23;20158;-90
2023/03/29 10:07:07;;;;;;;4.05;3.20;;;11.90;89.60;;;;;;6160079;23;20182;-90
2023/03/29 10:10:06;;;;;;;3.60;3.30;;;12.00;87.80;;;;;;6160490;23;20159;-90
2023/03/29 10:12:32;;;;;;;7.55;3.33;;;12.10;88.80;;;;;;6160452;23;20155;-90
2023/03/29 10:14:59;;;;;;;5.65;3.60;;;12.30;89.20;;;;;;6159572;23;20190;-90
2023/03/29 10:17:28;;;;;;;4.63;3.08;;;12.20;89.40;;;;;;6159590;23;20182;-90
2023/03/29 10:20:00;;;;;;;4.45;3.00;;;12.40;88.80;;;;;;6188120;23;20163;-90
2023/03/29 10:22:36;;;;;;;10.30;2.85;;;12.60;88.20;;;;;;6161138;23;20170;-90
2023/03/29 10:25:03;;;;;;;4.47;3.00;;;12.80;86.30;;;;;;6161389;23;20147;-91
2023/03/29 10:27:33;;;;;;;3.65;3.10;;;12.80;87.30;;;;;;6159801;23;20205;-90
2023/03/29 10:30:07;;;;;;;4.57;3.30;;;12.60;86.90;;;;;;6160505;23;20229;-90
2023/03/29 10:32:34;;;;;;;5.00;3.08;;;12.70;86.30;;;;;;6159996;23;20199;-90
2023/03/29 10:35:22;;;;;;;8.70;3.75;;;12.70;86.70;;;;;;6160449;23;20182;-90
2023/03/29 10:37:54;;;;;;;8.45;6.82;;;12.60;86.70;;;;;;6137150;23;20177;-90
2023/03/29 10:40:29;;;;;;;5.07;3.58;;;12.60;87.00;;;;;;6160928;23;20593;-90
2023/03/29 10:43:00;;;;;;;8.05;3.60;;;12.60;88.10;;;;;;6160865;23;20146;-90
2023/03/29 10:45:33;;;;;;;5.20;4.05;;;12.90;88.10;;;;;;6159729;23;20189;-90
2023/03/29 10:48:00;;;;;;;4.70;3.33;;;13.00;87.70;;;;;;6161679;23;20162;-90
2023/03/29 10:50:51;;;;;;;8.75;2.85;;;13.20;85.90;;;;;;6164001;23;20161;-89
2023/03/29 10:53:36;;;;;;;5.13;2.80;;;13.30;85.70;;;;;;6162408;23;20230;-90
2023/03/29 10:56:08;;;;;;;6.90;3.08;;;13.50;85.40;;;;;;6159994;23;20201;-90
2023/03/29 10:59:01;;;;;;;4.80;3.22;;;13.60;87.10;;;;;;6186545;23;20154;-90
2023/03/29 11:01:51;;;;;;;6.32;2.90;;;13.70;86.70;;;;;;6162148;23;20162;-91
2023/03/29 11:04:29;;;;;;;3.58;2.42;;;13.70;85.40;;;;;;6161681;23;20151;-90
2023/03/29 11:10:46;;;;;;;5.22;3.08;;;13.60;84.90;;;;;;6187669;23;20615;-90
2023/03/29 11:17:24;;;;;;;3.20;2.35;;;13.80;86.30;;;;;;6187663;23;20625;-90
2023/03/29 11:20:35;;;;;;;3.22;2.63;;;13.80;86.40;;;;;;6161665;23;20197;-89
2023/03/29 11:23:26;;;;;;;7.03;6.00;;;13.90;86.10;;;;;;6155531;23;20155;-90
2023/03/29 11:26:10;;;;;;;4.95;3.58;;;13.90;86.80;;;;;;6162660;23;20565;-89
2023/03/29 11:28:56;;;;;;;6.90;2.95;;;13.90;86.80;;;;;;6161904;23;20166;-89
2023/03/29 11:31:38;;;;;;;4.80;3.50;;;13.90;86.60;;;;;;6161293;23;20162;-91
2023/03/29 11:34:14;;;;;;;7.05;3.20;;;13.80;86.60;;;;;;6161882;23;20179;-89
2023/03/29 11:36:57;;;;;;;4.57;2.92;;;13.90;87.20;;;;;;6162692;23;20277;-90
2023/03/29 11:39:52;;;;;;;5.32;2.78;;;13.80;86.70;;;;;;6161324;23;20139;-90
2023/03/29 11:42:32;;;;;;;5.65;3.38;;;13.90;87.30;;;;;;6135947;23;20209;-90
2023/03/29 11:45:00;;;;;;;7.93;6.28;;;14.00;86.90;;;;;;6162104;23;20143;-90
2023/03/29 11:47:31;;;;;;;4.72;3.47;;;14.00;86.70;;;;;;6161902;23;20197;-90
2023/03/29 11:50:16;;;;;;;25.95;17.63;;;13.90;86.70;;;;;;6164168;23;20159;-90
2023/03/29 11:52:54;;;;;;;28.35;23.15;;;13.90;87.70;;;;;;6166312;23;20189;-92
2023/03/29 11:55:39;;;;;;;19.98;15.88;;;14.00;87.30;;;;;;6160717;23;20198;-90
2023/03/29 11:58:12;;;;;;;12.07;9.25;;;14.00;87.30;;;;;;6161565;23;20246;-90
2023/03/29 12:00:47;;;;;;;12.23;10.93;;;13.90;87.70;;;;;;6160709;23;20162;-90
2023/03/29 12:03:31;;;;;;;15.13;13.52;;;13.90;87.80;;;;;;6161337;23;20147;-90
2023/03/29 12:06:07;;;;;;;15.27;11.93;;;13.90;88.10;;;;;;6163044;23;20186;-90
2023/03/29 12:08:38;;;;;;;8.40;7.57;;;14.00;87.80;;;;;;6162661;23;20147;-90
2023/03/29 12:11:31;;;;;;;10.23;9.23;;;14.10;87.30;;;;;;6161709;23;20175;-90
2023/03/29 12:14:03;;;;;;;7.88;5.60;;;14.00;87.40;;;;;;6161561;23;20182;-90
2023/03/29 12:16:36;;;;;;;7.22;6.03;;;14.00;89.10;;;;;;6161240;23;20182;-90
2023/03/29 12:19:13;;;;;;;8.48;7.28;;;14.10;88.70;;;;;;6161200;23;20152;-90
2023/03/29 12:21:40;;;;;;;13.13;5.32;;;14.20;88.20;;;;;;6160822;23;20150;-89
2023/03/29 12:24:17;;;;;;;4.85;3.15;;;14.20;88.00;;;;;;6160746;23;20165;-89
2023/03/29 12:30:28;;;;;;;6.43;4.13;;;14.40;87.10;;;;;;6187647;23;20193;-89
2023/03/29 12:33:31;;;;;;;7.32;3.90;;;14.40;86.40;;;;;;6162663;23;20178;-89
2023/03/29 12:36:50;;;;;;;6.80;3.40;;;14.40;88.50;;;;;;6163322;23;20198;-88
2023/03/29 12:39:19;;;;;;;6.90;3.75;;;14.30;86.70;;;;;;6159203;23;20167;-90
2023/03/29 12:41:47;;;;;;;8.95;3.35;;;14.30;89.00;;;;;;6160692;23;20167;-90
2023/03/29 12:44:20;;;;;;;4.60;3.15;;;14.30;89.50;;;;;;6164538;23;20469;-90
2023/03/29 12:46:52;;;;;;;3.22;2.17;;;14.30;89.50;;;;;;6162029;23;20179;-90
2023/03/29 12:49:36;;;;;;;4.50;2.58;;;14.40;90.00;;;;;;6161511;23;20147;-90
2023/03/29 12:52:20;;;;;;;7.47;2.38;;;14.50;88.20;;;;;;6161244;23;20141;-90
2023/03/29 12:54:53;;;;;;;6.38;2.63;;;14.60;87.50;;;;;;6161480;23;20182;-90
2023/03/29 12:57:26;;;;;;;8.20;3.83;;;14.60;87.00;;;;;;6160093;23;20275;-90
2023/03/29 12:59:52;;;;;;;3.05;2.50;;;14.60;87.10;;;;;;6161305;23;20147;-90
2023/03/29 13:02:17;;;;;;;12.68;3.45;;;14.70;85.80;;;;;;6187421;23;20165;-90
2023/03/29 13:04:49;;;;;;;16.52;3.40;;;14.70;85.70;;;;;;6162548;23;20237;-90
2023/03/29 13:07:29;;;;;;;8.07;3.22;;;14.80;87.40;;;;;;6162223;23;20183;-92
2023/03/29 13:09:57;;;;;;;5.72;3.28;;;14.80;86.00;;;;;;6163009;23;20150;-91
2023/03/29 13:12:33;;;;;;;6.05;3.00;;;14.70;85.20;;;;;;6164496;23;20240;-90
2023/03/29 13:15:02;;;;;;;6.90;2.80;;;14.80;86.40;;;;;;6162708;23;20491;-90
2023/03/29 13:17:55;;;;;;;3.55;2.22;;;14.90;85.60;;;;;;6164509;23;20251;-90
2023/03/29 13:20:30;;;;;;;8.38;2.00;;;14.90;86.30;;;;;;6162670;23;20182;-90
2023/03/29 13:23:01;;;;;;;5.28;1.95;;;15.00;85.50;;;;;;6161253;23;20162;-90
2023/03/29 13:25:44;;;;;;;6.57;2.28;;;15.10;85.20;;;;;;6161050;23;20212;-91
2023/03/29 13:28:25;;;;;;;3.50;1.58;;;15.10;85.70;;;;;;6161524;23;20162;-90
2023/03/29 13:34:34;;;;;;;7.05;1.70;;;15.10;86.00;;;;;;6186985;23;20182;-93
2023/03/29 13:37:27;;;;;;;4.68;1.80;;;15.10;84.80;;;;;;6161894;23;20182;-92
2023/03/29 13:39:54;;;;;;;3.63;1.90;;;14.90;84.10;;;;;;6161816;23;20230;-93
2023/03/29 13:42:43;;;;;;;6.55;1.90;;;14.90;85.40;;;;;;6163497;23;20600;-92
2023/03/29 13:45:29;;;;;;;6.70;2.00;;;14.80;86.30;;;;;;6160731;23;20169;-92
2023/03/29 13:48:19;;;;;;;4.53;1.83;;;14.90;86.50;;;;;;6162790;23;20158;-94
2023/03/29 13:51:00;;;;;;;5.07;2.20;;;14.90;83.70;;;;;;6161781;23;20205;-92
2023/03/29 13:53:51;;;;;;;8.38;2.58;;;15.10;85.30;;;;;;6186261;23;20178;-92
2023/03/29 13:56:23;;;;;;;10.10;2.50;;;15.20;84.70;;;;;;6162296;23;20202;-93
2023/03/29 13:58:52;;;;;;;13.52;2.97;;;15.30;85.10;;;;;;6163417;23;20159;-92
2023/03/29 14:01:53;;;;;;;131.98;15.52;;;15.10;84.80;;;;;;6166236;23;20212;-92
2023/03/29 14:04:30;;;;;;;12.93;3.65;;;15.00;85.20;;;;;;6108121;23;20159;-92
2023/03/29 14:06:59;;;;;;;55.85;7.75;;;15.10;84.70;;;;;;6161146;23;20237;-92
2023/03/29 14:09:30;;;;;;;19.27;3.35;;;15.20;84.60;;;;;;6160818;23;20214;-92
2023/03/29 14:12:00;;;;;;;75.68;9.15;;;15.30;85.00;;;;;;6159878;23;20429;-92
2023/03/29 14:14:30;;;;;;;6.65;2.40;;;15.30;84.00;;;;;;6167464;23;20187;-92
2023/03/29 14:16:56;;;;;;;8.40;2.60;;;15.30;82.90;;;;;;6167673;23;20190;-92
2023/03/29 14:19:34;;;;;;;13.77;2.50;;;15.30;83.00;;;;;;6165846;23;20181;-92
2023/03/29 14:22:01;;;;;;;7.32;1.98;;;15.30;84.60;;;;;;6165141;23;20150;-93
2023/03/29 14:24:46;;;;;;;5.18;2.13;;;15.30;84.60;;;;;;6161092;23;20186;-93
2023/03/29 14:27:13;;;;;;;10.55;2.40;;;15.30;83.00;;;;;;6165089;23;20628;-94
2023/03/29 14:29:38;;;;;;;5.57;2.30;;;15.20;84.30;;;;;;6164110;23;20289;-93
2023/03/29 14:32:15;;;;;;;3.75;2.25;;;15.10;83.30;;;;;;6162354;23;20159;-92
2023/03/29 14:34:48;;;;;;;10.60;2.45;;;15.00;84.90;;;;;;6166917;23;20186;-92
2023/03/29 14:37:26;;;;;;;4.88;1.95;;;14.90;84.70;;;;;;6163879;23;20186;-92
2023/03/29 14:40:27;;;;;;;31.52;3.17;;;15.00;85.20;;;;;;6165228;23;20155;-91
2023/03/29 14:42:54;;;;;;;31.88;3.72;;;14.90;85.50;;;;;;6160865;23;20163;-91
2023/03/29 14:45:25;;;;;;;9.15;2.47;;;14.90;85.10;;;;;;6161716;23;20178;-91
2023/03/29 14:47:59;;;;;;;5.85;2.10;;;14.80;85.90;;;;;;6163400;23;20241;-91
2023/03/29 14:50:30;;;;;;;5.68;1.85;;;14.70;85.60;;;;;;6161511;23;20195;-92
2023/03/29 14:52:57;;;;;;;4.28;2.00;;;14.60;85.60;;;;;;6162018;23;20155;-91
2023/03/29 14:55:23;;;;;;;6.47;2.00;;;14.40;85.30;;;;;;6163719;23;20202;-91
2023/03/29 14:57:54;;;;;;;5.22;1.80;;;14.40;86.10;;;;;;6160677;23;20226;-91
2023/03/29 15:00:40;;;;;;;1.75;1.60;;;14.50;86.10;;;;;;6168874;23;20154;-91
2023/03/29 15:03:13;;;;;;;31.20;2.97;;;14.60;85.70;;;;;;6171904;23;20155;-91
2023/03/29 15:05:41;;;;;;;4.68;1.80;;;14.70;85.70;;;;;;6162875;23;20191;-91
2023/03/29 15:08:12;;;;;;;4.03;1.83;;;14.90;86.50;;;;;;6159663;23;20167;-91
2023/03/29 15:10:38;;;;;;;3.83;1.80;;;15.00;84.60;;;;;;6159772;23;20170;-91
2023/03/29 15:13:06;;;;;;;17.40;3.10;;;15.00;84.50;;;;;;6161570;23;20162;-91
2023/03/29 15:15:35;;;;;;;11.15;2.20;;;15.10;84.70;;;;;;6186436;23;20151;-91
2023/03/29 15:18:02;;;;;;;5.97;2.15;;;15.00;84.50;;;;;;6159985;23;20159;-91
2023/03/29 15:20:41;;;;;;;2.00;1.70;;;15.00;85.00;;;;;;6160529;23;20170;-91
2023/03/29 15:23:11;;;;;;;9.25;2.22;;;15.10;85.00;;;;;;6160512;23;20170;-91
2023/03/29 15:25:47;;;;;;;3.33;1.60;;;15.00;85.20;;;;;;6159930;23;20616;-91
2023/03/29 15:28:27;;;;;;;4.97;1.50;;;14.90;85.60;;;;;;6160503;23;20154;-90
2023/03/29 15:30:58;;;;;;;2.95;1.95;;;14.80;86.20;;;;;;6160134;23;20179;-91
2023/03/29 15:33:30;;;;;;;2.20;1.65;;;14.70;85.30;;;;;;6163693;23;20691;-91
2023/03/29 15:35:56;;;;;;;2.95;1.70;;;14.50;85.70;;;;;;6167940;23;20175;-92
2023/03/29 15:38:22;;;;;;;1.60;1.50;;;14.40;86.10;;;;;;6174302;23;20147;-92
2023/03/29 15:40:47;;;;;;;5.22;1.80;;;14.30;86.70;;;;;;6163050;23;20250;-92
2023/03/29 15:43:13;;;;;;;3.72;1.88;;;14.20;88.60;;;;;;6162877;23;20163;-92
2023/03/29 15:45:40;;;;;;;3.83;1.70;;;14.20;88.10;;;;;;6163518;23;20190;-91
2023/03/29 15:48:23;;;;;;;4.32;2.05;;;14.10;88.30;;;;;;6190903;23;20238;-92
2023/03/29 15:50:48;;;;;;;4.65;1.90;;;14.00;88.30;;;;;;6161206;23;20161;-92
2023/03/29 15:53:22;;;;;;;4.75;1.95;;;14.00;88.90;;;;;;6161414;23;20230;-92
2023/03/29 15:55:51;;;;;;;3.80;1.80;;;14.00;89.00;;;;;;6190099;23;20237;-91
2023/03/29 15:58:23;;;;;;;4.20;1.98;;;14.00;89.00;;;;;;6167803;23;20187;-93
2023/03/29 16:01:10;;;;;;;3.83;1.90;;;14.00;89.30;;;;;;6162749;23;20151;-93
2023/03/29 16:03:37;;;;;;;7.63;2.85;;;14.00;89.50;;;;;;6166929;23;20139;-93
2023/03/29 16:06:03;;;;;;;30.05;11.63;;;14.00;89.90;;;;;;6163295;23;20183;-92
2023/03/29 16:08:29;;;;;;;30.27;10.38;;;13.90;90.80;;;;;;6163774;23;20170;-94
2023/03/29 16:10:55;;;;;;;30.10;10.50;;;13.80;90.80;;;;;;6190123;23;20179;-93
2023/03/29 16:13:23;;;;;;;20.45;6.68;;;13.70;91.30;;;;;;6162972;23;20631;-93
2023/03/29 16:15:52;;;;;;;29.13;11.57;;;13.70;91.60;;;;;;6165389;23;20675;-92
2023/03/29 16:18:18;;;;;;;9.32;4.68;;;13.60;92.20;;;;;;6165585;23;20147;-92
2023/03/29 16:20:48;;;;;;;28.45;10.10;;;13.50;91.80;;;;;;6164934;23;20166;-92
2023/03/29 16:23:14;;;;;;;22.88;6.18;;;13.40;92.00;;;;;;6164814;23;20155;-93
2023/03/29 16:25:39;;;;;;;12.07;4.65;;;13.40;92.10;;;;;;6164744;23;20182;-93
2023/03/29 16:28:07;;;;;;;35.38;9.65;;;13.30;92.50;;;;;;6165666;23;20154;-93
2023/03/29 16:30:34;;;;;;;46.05;10.52;;;13.20;93.20;;;;;;6164879;23;20215;-93
2023/03/29 16:33:10;;;;;;;28.25;9.23;;;13.10;93.30;;;;;;6165310;23;20155;-93
2023/03/29 16:35:38;;;;;;;36.95;12.80;;;13.10;93.40;;;;;;6166082;23;20273;-93
2023/03/29 16:38:05;;;;;;;6.20;3.47;;;13.00;93.80;;;;;;6166145;23;20159;-93
2023/03/29 16:40:32;;;;;;;13.73;4.85;;;13.00;93.40;;;;;;6165850;23;20162;-92
2023/03/29 16:42:57;;;;;;;14.10;5.47;;;12.90;93.50;;;;;;6166298;23;20163;-93
2023/03/29 16:45:28;;;;;;;5.25;3.30;;;12.80;93.50;;;;;;6172380;23;20159;-94
2023/03/29 16:47:54;;;;;;;9.55;4.03;;;12.80;93.40;;;;;;6166283;23;20158;-93
2023/03/29 16:50:20;;;;;;;15.20;6.18;;;12.70;93.70;;;;;;6166321;23;20213;-93
2023/03/29 16:52:47;;;;;;;76.63;21.83;;;12.70;93.70;;;;;;6168695;23;20166;-93
2023/03/29 16:55:14;;;;;;;96.03;21.05;;;12.60;94.40;;;;;;6165702;23;20191;-93
2023/03/29 16:57:51;;;;;;;12.27;3.85;;;12.60;94.50;;;;;;6166669;23;20147;-93
2023/03/29 17:00:19;;;;;;;6.50;2.40;;;12.50;94.50;;;;;;6167715;23;20155;-93
2023/03/29 17:02:48;;;;;;;4.82;2.40;;;12.50;94.50;;;;;;6192417;23;20664;-93
2023/03/29 17:05:14;;;;;;;5.60;2.53;;;12.50;94.80;;;;;;6168716;23;20163;-94
2023/03/29 17:08:12;;;;;;;5.82;2.60;;;12.40;94.80;;;;;;6166720;23;20222;-93
2023/03/29 17:10:44;;;;;;;3.38;2.38;;;12.40;95.20;;;;;;6171283;23;20146;-94
2023/03/29 17:14:05;;;;;;;3.50;2.30;;;12.30;95.20;;;;;;6160355;23;20219;-75
2023/03/29 17:16:31;;;;;;;3.67;2.20;;;12.20;95.50;;;;;;6130711;23;20210;-78
2023/03/29 17:19:00;;;;;;;6.72;2.80;;;12.10;95.70;;;;;;6130771;23;20470;-75
2023/03/29 17:21:28;;;;;;;4.15;2.63;;;12.00;95.90;;;;;;6130715;23;20500;-75
2023/03/29 17:24:31;;;;;;;3.70;2.40;;;11.90;96.10;;;;;;6130923;23;20609;-75
2023/03/29 17:26:57;;;;;;;9.55;2.60;;;11.90;96.30;;;;;;6130629;23;20206;-75
2023/03/29 17:29:22;;;;;;;4.60;2.78;;;11.80;96.60;;;;;;6130614;23;20159;-75
2023/03/29 17:32:15;;;;;;;20.17;2.95;;;11.70;97.00;;;;;;6130972;23;20171;-75
2023/03/29 17:34:41;;;;;;;6.75;2.58;;;11.60;97.00;;;;;;6131890;23;20207;-75
2023/03/29 17:37:08;;;;;;;7.18;2.83;;;11.50;97.20;;;;;;6130742;23;20182;-75
2023/03/29 17:39:36;;;;;;;10.68;2.70;;;11.40;97.40;;;;;;6130583;23;20616;-75
2023/03/29 17:42:02;;;;;;;5.47;2.60;;;11.30;97.70;;;;;;6156639;23;20194;-75
2023/03/29 17:44:27;;;;;;;5.50;2.72;;;11.30;98.00;;;;;;6132294;23;20164;-74